Home   Weather   Greece   Kallithea   Past weeks
Flag for Greece

Past Weather in Kallithea, Greece — Yesterday and Last 2 Weeks

Currently: 82 °F. Pleasantly warm. (Weather station: Elefsis Airport, Greece). See more current weather

Past Weather in Kallithea — Graph

°F

Kallithea Temperature Yesterday

Maximum temperature yesterday: 97 °F (at 1:50 pm)
Minimum temperature yesterday: 81 °F (at 4:50 am)
Average temperature yesterday: 89 °F

High & Low Weather Summary for the Past Weeks

 TemperatureHumidityPressure
High102 °F (Jul 13, 2:50 pm)62% (Jul 24, 6:50 am)29.89 "Hg (Jul 24, 6:50 am)
Low79 °F (Jul 22, 5:20 am)12% (Jul 15, 5:50 pm)29.68 "Hg (Jul 20, 6:20 pm)
Average92 °F29%29.79 "Hg
* Reported Jul 10 2:20 am — Jul 25 2:20 am, Kallithea. Weather by CustomWeather, © 2024

Note: Actual official high and low records may vary slightly from our data, if they occured in-between our weather recording intervals... More about our weather records

Kallithea Weather History for the Previous 24 Hours

Scroll right to see more
 ConditionsComfort  
Time TempWeatherWind HumidityBarometerVisibility
2:20 am
Thu, Jul 25
82 °FWarm.6 mph42%29.68 "HgN/A
1:50 am82 °FWarm.7 mph42%29.68 "HgN/A
1:20 am82 °FWarm.6 mph42%29.68 "HgN/A
12:50 am82 °FWarm.5 mph42%29.71 "HgN/A
12:20 am84 °FPleasantly warm.2 mph35%29.71 "HgN/A
11:20 pm
Wed, Jul 24
86 °FPassing clouds.No wind31%29.71 "HgN/A
10:50 pm86 °FPassing clouds.5 mph31%29.71 "HgN/A
10:20 pm88 °FPassing clouds.6 mph29%29.71 "HgN/A
9:50 pm90 °FPassing clouds.6 mph27%29.71 "HgN/A
9:20 pm90 °FPassing clouds.7 mph27%29.71 "HgN/A
8:50 pm91 °FPassing clouds.7 mph24%29.71 "HgN/A
8:20 pm91 °FPassing clouds.7 mph23%29.68 "HgN/A
7:50 pm93 °FPassing clouds.12 mph20%29.68 "HgN/A
7:20 pm95 °FPassing clouds.12 mph20%29.68 "HgN/A
6:50 pm95 °FPassing clouds.12 mph20%29.68 "HgN/A
6:20 pm95 °FPassing clouds.14 mph22%29.68 "HgN/A
5:50 pm95 °FPassing clouds.14 mph20%29.68 "HgN/A
5:20 pm97 °FPassing clouds.12 mph23%29.68 "HgN/A
4:50 pm97 °FPassing clouds.12 mph23%29.68 "HgN/A
3:50 pm97 °FPassing clouds.12 mph25%29.71 "HgN/A
3:20 pm97 °FPassing clouds.12 mph28%29.71 "HgN/A
2:50 pm95 °FPassing clouds.14 mph28%29.74 "HgN/A
2:20 pm97 °FPassing clouds.16 mph27%29.74 "HgN/A
1:50 pm97 °FPassing clouds.16 mph28%29.74 "HgN/A
1:20 pm95 °FScattered clouds.12 mph30%29.74 "HgN/A
12:50 pm93 °FScattered clouds.14 mph32%29.77 "HgN/A
12:20 pm93 °FScattered clouds.12 mph34%29.77 "HgN/A
10:50 am91 °FPassing clouds.9 mph38%29.77 "HgN/A
10:20 am90 °FPassing clouds.7 mph43%29.77 "HgN/A
9:50 am88 °FPassing clouds.9 mph46%29.80 "HgN/A
9:20 am88 °FPassing clouds.9 mph46%29.80 "HgN/A
8:50 am86 °FSunny.6 mph52%29.80 "Hg10 mi
8:20 am84 °FSunny.9 mph55%29.80 "Hg10 mi
7:50 am84 °FSunny.9 mph55%29.80 "Hg10 mi
7:20 am82 °FSunny.5 mph58%29.80 "Hg10 mi
6:50 am81 °FSunny.6 mph62%29.80 "Hg10 mi
6:20 am82 °FClear.8 mph55%29.80 "Hg10 mi
5:50 am82 °FClear.10 mph55%29.80 "Hg10 mi
5:20 am82 °FWarm.8 mph51%29.77 "HgN/A
4:50 am81 °FWarm.5 mph51%29.77 "HgN/A
4:20 am82 °FWarm.5 mph51%29.77 "HgN/A
3:50 am82 °FWarm.5 mph51%29.77 "HgN/A
3:20 am82 °FWarm.8 mph51%29.77 "HgN/A
Weather by CustomWeather, © 2024

See weather overview